Airfield :
LOGIN :

Register | Disclaimer

   EN    FR    IT 

 










Legend :    VFR   Marginal VFR   IFR   Intensive IFR   Very Intensive IFR
Visi :
Ceiling :
>= 8 km
>= 3000ft
5 to 8 km
1000 to 3000 ft
1500m to 5 km
500 to 1000 ft
800 to 1500m
200 to 500 ft
< 800m
< 200 ft
Symbols :   Thunderstorms  Fog  Heavy snow  Heavy precipitations  Wind > 20 kt
SIGMETs :     Misc.  Thunderstorms  Icing  Turbulence  Mountain Waves  Volcanic Ashes






- Airport Elevation : 203 ft
- IATA code : ELU


DAUO - Guemar - El Oued

CURRENT METAR :
  • 162000Z 36005KT CAVOK 37/09 Q1010

EXPIRED METARs :
  • 161900Z 35006KT CAVOK 38/08 Q1009
  • 161700Z 30008KT 270V330 CAVOK 41/07 Q1009
  • 161600Z 31008KT CAVOK 42/06 Q1008

TAF TAF DAUO
Valid from the 16 at 21:00 until the 17 at 06:00 UTC


162000Z 1621/1706 36008KT CAVOK



MET'MAP, your aeronautical weather chart ! - Copyright ORBIFLY December 2007 - Disclaimer

ORBIFLY MET'MAP TEAM :

Programming & Development : Alexandra Zaïnal
Original concept : Baudouin d'Aumeries
Technical & hardware support : Manuel Goepfert
Assistance : Marc-Olivier Méhu




SOURCES & CREDITS :

   NOAA